Time;durP1;ratioP1;P1;durP2;ratioP2;P2;SDS_P1;SDS_P2;PMS_P1;PMS_P2;Temp;Humidity;BMP_temperature;BMP_pressure;BME280_temperature;BME280_humidity;BME280_pressure;Samples;Min_cycle;Max_cycle;Signal;HPM_P1;HPM_P2
2022/10/10 00:00:23;;;;;;;12.45;7.43;;;;;;;13.40;61.32;101492.38;6246297;22;20004;-72
2022/10/10 00:02:48;;;;;;;13.35;7.47;;;;;;;13.57;60.68;101498.66;6242261;22;20526;-73
2022/10/10 00:05:14;;;;;;;14.25;7.32;;;;;;;13.60;60.59;101493.44;6249956;22;20018;-72
2022/10/10 00:07:39;;;;;;;15.77;7.70;;;;;;;13.61;60.85;101491.69;6237618;22;20331;-72
2022/10/10 00:10:05;;;;;;;12.85;8.00;;;;;;;13.58;60.70;101494.31;6248539;22;20039;-72
2022/10/10 00:12:30;;;;;;;12.82;7.82;;;;;;;13.29;61.74;101484.38;6251439;22;20200;-72
2022/10/10 00:14:55;;;;;;;13.32;7.25;;;;;;;13.53;61.02;101489.03;6244385;22;20406;-72
2022/10/10 00:17:21;;;;;;;12.68;7.57;;;;;;;13.50;60.96;101488.97;6250445;22;20436;-73
2022/10/10 00:19:46;;;;;;;13.20;7.22;;;;;;;13.67;60.43;101483.91;6242561;22;20014;-73
2022/10/10 00:22:11;;;;;;;12.00;7.22;;;;;;;13.51;61.03;101479.38;6221440;22;20027;-72
2022/10/10 00:24:37;;;;;;;14.90;7.85;;;;;;;13.50;60.98;101475.00;6247405;22;20007;-72
2022/10/10 00:27:02;;;;;;;13.68;7.57;;;;;;;13.40;61.52;101474.91;6244301;22;20007;-72
2022/10/10 00:29:27;;;;;;;13.07;7.30;;;;;;;13.51;61.14;101475.03;6250979;22;20011;-73
2022/10/10 00:31:53;;;;;;;11.02;7.05;;;;;;;13.61;60.58;101470.75;6217582;22;20353;-73
2022/10/10 00:34:18;;;;;;;11.13;7.20;;;;;;;13.61;60.89;101473.38;6251996;22;20057;-74
2022/10/10 00:36:43;;;;;;;12.27;7.15;;;;;;;13.56;61.07;101472.44;6250410;22;20011;-73
2022/10/10 00:39:09;;;;;;;11.55;7.65;;;;;;;13.64;60.47;101476.91;6241091;22;20039;-73
2022/10/10 00:41:34;;;;;;;13.80;7.40;;;;;;;13.51;61.04;101475.03;6244890;22;20510;-72
2022/10/10 00:44:08;;;;;;;13.18;7.43;;;;;;;13.60;60.75;101469.00;6240673;22;20011;-72
2022/10/10 00:46:34;;;;;;;11.13;7.40;;;;;;;13.13;61.90;101465.81;6250805;22;20470;-72
2022/10/10 00:49:02;;;;;;;12.15;7.13;;;;;;;13.44;61.11;101462.72;6248593;22;20446;-72
2022/10/10 00:51:28;;;;;;;12.20;7.60;;;;;;;13.24;61.62;101461.59;6245248;22;20007;-73
2022/10/10 00:54:04;;;;;;;14.43;7.82;;;;;;;13.40;61.37;101455.69;6246823;22;20003;-72
2022/10/10 00:56:34;;;;;;;12.35;7.68;;;;;;;13.42;61.21;101461.81;6246419;22;20022;-73
2022/10/10 00:59:03;;;;;;;14.73;7.53;;;;;;;13.33;61.47;101459.09;6250385;22;20011;-73
2022/10/10 01:01:29;;;;;;;12.35;7.28;;;;;;;13.45;60.83;101459.22;6250842;22;20086;-73
2022/10/10 01:04:00;;;;;;;11.90;7.30;;;;;;;13.57;60.53;101456.75;6244146;22;20577;-73
2022/10/10 01:06:27;;;;;;;13.90;7.38;;;;;;;13.56;60.68;101456.72;6247873;22;20010;-73
2022/10/10 01:08:53;;;;;;;12.55;6.97;;;;;;;13.65;60.32;101455.09;6241702;22;20047;-72
2022/10/10 01:11:41;;;;;;;13.15;7.50;;;;;;;13.61;60.34;101452.41;6220900;22;20705;-72
2022/10/10 01:14:22;;;;;;;11.18;7.45;;;;;;;13.58;60.44;101449.78;6243710;22;20356;-73
2022/10/10 01:16:50;;;;;;;10.50;6.75;;;;;;;13.49;60.85;101455.78;6248931;22;20008;-73
2022/10/10 01:19:33;;;;;;;11.73;7.07;;;;;;;13.49;60.85;101455.78;6246434;22;20435;-72
2022/10/10 01:22:25;;;;;;;14.18;7.07;;;;;;;13.46;60.92;101449.63;6248226;22;20344;-73
2022/10/10 01:25:24;;;;;;;13.32;7.30;;;;;;;13.43;60.92;101446.97;6244809;22;20008;-73
2022/10/10 01:27:56;;;;;;;14.20;7.18;;;;;;;13.45;61.20;101440.91;6240667;22;20185;-73
2022/10/10 01:30:23;;;;;;;11.30;7.32;;;;;;;13.43;61.18;101439.13;6247992;22;20008;-72
2022/10/10 01:32:55;;;;;;;14.82;7.47;;;;;;;13.33;61.46;101439.03;6242188;22;20078;-73
2022/10/10 01:35:37;;;;;;;10.00;6.93;;;;;;;13.45;61.35;101440.03;6248569;22;20215;-74
2022/10/10 01:38:29;;;;;;;12.40;7.35;;;;;;;13.47;61.27;101431.31;6243184;22;20020;-72
2022/10/10 01:41:19;;;;;;;12.57;7.05;;;;;;;13.36;61.48;101431.19;6251142;22;20012;-73
2022/10/10 01:43:44;;;;;;;11.23;6.78;;;;;;;13.40;61.46;101417.28;6241020;22;20348;-73
2022/10/10 01:46:10;;;;;;;12.13;7.18;;;;;;;13.40;61.46;101419.91;6251013;22;20003;-73
2022/10/10 01:48:38;;;;;;;14.13;6.82;;;;;;;13.39;61.49;101412.91;6246734;22;20008;-74
2022/10/10 01:51:36;;;;;;;13.88;6.95;;;;;;;13.43;61.15;101412.91;6244253;22;20008;-72
2022/10/10 01:55:00;;;;;;;13.70;6.95;;;;;;;13.31;61.44;101411.94;6251303;22;20181;-72
2022/10/10 01:57:40;;;;;;;13.02;7.18;;;;;;;13.36;61.44;101402.38;6196782;22;20432;-72
2022/10/10 02:00:12;;;;;;;14.93;7.32;;;;;;;13.30;61.48;101402.31;6248901;22;20108;-74
2022/10/10 02:03:04;;;;;;;13.02;6.90;;;;;;;13.22;61.92;101400.50;6246025;22;20023;-73
2022/10/10 02:05:32;;;;;;;11.60;6.88;;;;;;;13.27;61.73;101409.28;6247231;22;20491;-73
2022/10/10 02:08:07;;;;;;;13.77;6.90;;;;;;;13.25;61.74;101400.50;6243755;22;20370;-73
2022/10/10 02:10:41;;;;;;;11.15;6.25;;;;;;;13.22;61.88;101404.00;6251462;22;20361;-72
2022/10/10 02:13:10;;;;;;;12.33;6.67;;;;;;;13.17;62.09;101405.69;6251917;22;20420;-73
2022/10/10 02:15:49;;;;;;;13.50;7.13;;;;;;;13.12;62.26;101401.19;6238885;22;20008;-72
2022/10/10 02:18:20;;;;;;;11.38;6.65;;;;;;;13.15;62.14;101388.19;6246242;22;20007;-73
2022/10/10 02:20:47;;;;;;;11.95;6.40;;;;;;;13.12;62.14;101391.66;6219961;22;20022;-72
2022/10/10 02:23:15;;;;;;;12.40;7.15;;;;;;;13.09;62.22;101388.97;6250318;22;20026;-72
2022/10/10 02:25:43;;;;;;;15.23;7.03;;;;;;;13.07;62.50;101387.19;6215427;22;20008;-72
2022/10/10 02:28:17;;;;;;;11.77;6.78;;;;;;;13.09;62.29;101385.47;6244681;22;20010;-73
2022/10/10 02:30:44;;;;;;;;;;;;;;;12.98;63.23;101382.75;6250218;22;20057;-72
2022/10/10 02:33:13;;;;;;;11.18;6.65;;;;;;;13.05;62.63;101384.59;6242696;22;19918;-74
2022/10/10 02:35:41;;;;;;;14.30;6.80;;;;;;;13.02;62.78;101382.78;6243360;22;20065;-72
2022/10/10 02:38:10;;;;;;;13.13;6.85;;;;;;;12.99;62.94;101382.75;6241488;22;20161;-72
2022/10/10 02:40:36;;;;;;;11.57;6.95;;;;;;;12.96;62.95;101377.50;6247349;22;20393;-72
2022/10/10 02:43:05;;;;;;;12.43;7.30;;;;;;;12.92;63.02;101370.47;6218158;22;20029;-73
2022/10/10 02:45:32;;;;;;;12.80;7.35;;;;;;;12.80;63.71;101365.09;6242965;22;20091;-73
2022/10/10 02:47:58;;;;;;;14.63;7.22;;;;;;;12.87;63.97;101374.75;6216675;22;20634;-74
2022/10/10 02:50:25;;;;;;;10.90;6.78;;;;;;;12.93;63.77;101366.97;6242812;22;20027;-73
2022/10/10 02:52:50;;;;;;;11.80;7.15;;;;;;;12.99;63.75;101366.19;6250022;22;20000;-73
2022/10/10 02:55:16;;;;;;;11.93;6.95;;;;;;;13.02;63.38;101369.69;6246719;22;20134;-73
2022/10/10 02:57:41;;;;;;;12.93;6.70;;;;;;;13.00;63.75;101368.78;6237363;22;20011;-72
2022/10/10 03:00:07;;;;;;;10.48;6.55;;;;;;;13.00;63.32;101360.06;6245992;22;20086;-73
2022/10/10 03:02:32;;;;;;;10.60;7.00;;;;;;;13.03;63.44;101362.72;6240806;22;20058;-72
2022/10/10 03:04:58;;;;;;;14.15;6.88;;;;;;;12.97;63.48;101363.53;6251464;22;20035;-73
2022/10/10 03:07:24;;;;;;;12.35;6.70;;;;;;;12.97;63.54;101360.94;6244522;22;20003;-72
2022/10/10 03:09:50;;;;;;;13.73;7.18;;;;;;;12.98;63.52;101361.81;6239563;22;20609;-72
2022/10/10 03:12:16;;;;;;;12.73;7.43;;;;;;;12.91;63.81;101355.63;6245089;22;20039;-73
2022/10/10 03:14:42;;;;;;;12.23;6.57;;;;;;;12.92;63.50;101356.50;6244335;22;20043;-72
2022/10/10 03:17:07;;;;;;;15.02;7.32;;;;;;;12.85;63.66;101359.91;6248380;22;20086;-74
2022/10/10 03:19:33;;;;;;;10.88;7.13;;;;;;;12.77;64.19;101359.81;6247562;22;20011;-72
2022/10/10 03:21:58;;;;;;;12.02;6.93;;;;;;;12.76;64.44;101352.81;6242038;22;20089;-72
2022/10/10 03:24:23;;;;;;;13.25;6.90;;;;;;;12.78;64.41;101361.56;6247098;22;20004;-72
2022/10/10 03:26:49;;;;;;;11.65;6.93;;;;;;;12.75;64.12;101356.28;6241202;22;20000;-73
2022/10/10 03:29:14;;;;;;;11.30;7.00;;;;;;;12.73;64.10;101352.78;6246871;22;20015;-73
2022/10/10 03:31:40;;;;;;;12.25;7.45;;;;;;;12.72;64.19;101353.66;6242007;22;20046;-73
2022/10/10 03:34:05;;;;;;;12.75;7.53;;;;;;;12.63;64.84;101350.03;6247691;22;20042;-72
2022/10/10 03:36:30;;;;;;;12.98;7.40;;;;;;;12.58;64.89;101352.59;6245888;22;20503;-73
2022/10/10 03:38:56;;;;;;;11.98;7.63;;;;;;;12.65;64.81;101356.16;6240472;22;20015;-72
2022/10/10 03:41:21;;;;;;;12.52;7.50;;;;;;;12.68;64.85;101351.88;6246916;22;20008;-72
2022/10/10 03:43:46;;;;;;;13.10;7.13;;;;;;;12.69;64.56;101347.47;6241036;22;20335;-71
2022/10/10 03:46:12;;;;;;;12.20;6.90;;;;;;;12.68;64.95;101349.25;6247826;22;20008;-72
2022/10/10 03:48:37;;;;;;;12.73;7.13;;;;;;;12.66;64.94;101355.31;6245319;22;20474;-72
2022/10/10 03:51:02;;;;;;;14.60;7.47;;;;;;;12.60;65.16;101354.38;6216378;22;20018;-73
2022/10/10 03:53:28;;;;;;;12.80;7.75;;;;;;;12.67;65.11;101350.09;6221253;22;20187;-73
2022/10/10 03:55:54;;;;;;;12.07;7.18;;;;;;;12.66;65.06;101347.47;6237744;22;20011;-72
2022/10/10 03:58:20;;;;;;;11.95;7.50;;;;;;;12.69;64.90;101352.72;6246188;22;20008;-72
2022/10/10 04:00:55;;;;;;;11.93;7.25;;;;;;;12.67;64.92;101354.44;6249270;22;20032;-73
2022/10/10 04:03:21;;;;;;;12.65;6.88;;;;;;;12.66;64.82;101348.34;6244566;22;20020;-73
2022/10/10 04:05:46;;;;;;;16.05;7.90;;;;;;;12.62;65.32;101345.69;6245700;22;20011;-74
2022/10/10 04:08:11;;;;;;;11.15;7.18;;;;;;;12.62;65.23;101351.78;6242199;22;20385;-71
2022/10/10 04:10:37;;;;;;;11.88;7.25;;;;;;;12.65;65.19;101345.69;6246722;22;20014;-74
2022/10/10 04:13:02;;;;;;;13.30;7.57;;;;;;;12.61;65.57;101342.19;6246795;22;20018;-73
2022/10/10 04:15:28;;;;;;;15.30;7.28;;;;;;;12.65;65.43;101343.97;6242992;22;20011;-71
2022/10/10 04:17:53;;;;;;;12.35;7.43;;;;;;;12.58;65.81;101343.00;6244238;22;20008;-72
2022/10/10 04:20:19;;;;;;;12.05;7.75;;;;;;;12.63;66.05;101345.66;6244487;22;20343;-72
2022/10/10 04:22:44;;;;;;;13.32;8.07;;;;;;;12.66;65.73;101344.84;6221812;22;20307;-73
2022/10/10 04:25:10;;;;;;;12.23;7.53;;;;;;;12.67;65.54;101336.13;6249413;22;20030;-73
2022/10/10 04:27:36;;;;;;;13.38;7.70;;;;;;;12.64;65.85;101342.19;6237566;22;20007;-73
2022/10/10 04:30:02;;;;;;;15.20;7.70;;;;;;;12.66;65.92;101342.22;6246505;22;20575;-73
2022/10/10 04:32:27;;;;;;;12.43;7.90;;;;;;;12.63;65.78;101334.31;6242329;22;20388;-72
2022/10/10 04:34:52;;;;;;;13.93;8.10;;;;;;;12.70;65.77;101342.28;6249675;22;20004;-73
2022/10/10 04:37:18;;;;;;;13.95;7.97;;;;;;;12.66;65.83;101340.50;6244287;22;20003;-74
2022/10/10 04:39:43;;;;;;;13.57;8.02;;;;;;;12.61;66.33;101336.94;6237149;22;20012;-72
2022/10/10 04:42:08;;;;;;;10.75;7.38;;;;;;;12.68;65.67;101341.41;6245818;22;20008;-73
2022/10/10 04:44:34;;;;;;;13.85;8.10;;;;;;;12.63;65.89;101337.81;6244396;22;20456;-74
2022/10/10 04:46:59;;;;;;;14.35;7.65;;;;;;;12.67;65.96;101346.59;6248353;22;20022;-73
2022/10/10 04:49:24;;;;;;;15.27;7.53;;;;;;;12.62;66.30;101353.53;6244773;22;20033;-72
2022/10/10 04:51:50;;;;;;;15.98;7.93;;;;;;;12.60;66.35;101343.91;6241433;22;20250;-72
2022/10/10 04:54:15;;;;;;;13.77;8.07;;;;;;;12.57;66.08;101346.47;6247279;22;20069;-72
2022/10/10 04:56:41;;;;;;;15.55;7.50;;;;;;;12.59;66.57;101343.88;6243251;22;20019;-72
2022/10/10 04:59:08;;;;;;;15.35;7.57;;;;;;;12.54;66.53;101346.44;6250356;22;20007;-71
2022/10/10 05:01:33;;;;;;;14.60;8.60;;;;;;;12.43;66.55;101348.06;6248462;22;20335;-72
2022/10/10 05:03:59;;;;;;;15.35;8.05;;;;;;;12.51;66.84;101346.41;6244888;22;20012;-71
2022/10/10 05:06:24;;;;;;;14.63;8.52;;;;;;;12.49;66.51;101342.03;6250665;22;20018;-74
2022/10/10 05:08:50;;;;;;;14.25;8.02;;;;;;;12.51;66.54;101358.59;6246566;22;20042;-74
2022/10/10 05:11:15;;;;;;;13.13;7.82;;;;;;;12.52;66.52;101358.63;6250690;22;20282;-72
2022/10/10 05:13:41;;;;;;;14.80;8.27;;;;;;;12.47;66.84;101356.81;6245625;22;20904;-73
2022/10/10 05:16:06;;;;;;;15.95;7.88;;;;;;;12.45;66.35;101353.28;6251000;22;20588;-73
2022/10/10 05:18:31;;;;;;;15.07;8.45;;;;;;;12.31;67.93;101362.69;6250088;22;20307;-72
2022/10/10 05:20:57;;;;;;;15.13;8.18;;;;;;;12.35;67.99;101360.13;6245748;22;20061;-74
2022/10/10 05:23:22;;;;;;;16.83;7.85;;;;;;;12.50;67.34;101360.31;6247907;22;20011;-72
2022/10/10 05:25:49;;;;;;;16.02;8.23;;;;;;;12.44;67.73;101362.00;6240088;22;20061;-73
2022/10/10 05:28:14;;;;;;;15.95;8.63;;;;;;;12.44;67.48;101365.47;6247801;22;20074;-72
2022/10/10 05:30:40;;;;;;;15.88;7.95;;;;;;;12.44;67.74;101362.00;6246933;22;20419;-72
2022/10/10 05:33:05;;;;;;;14.60;8.27;;;;;;;12.47;67.56;101362.91;6241627;22;20012;-73
2022/10/10 05:35:30;;;;;;;15.60;8.40;;;;;;;12.44;67.86;101367.25;6247090;22;20073;-74
2022/10/10 05:37:56;;;;;;;15.25;7.90;;;;;;;12.54;67.26;101371.72;6241168;22;20050;-72
2022/10/10 05:40:21;;;;;;;17.67;9.05;;;;;;;12.43;67.51;101361.13;6245093;22;20039;-72
2022/10/10 05:42:47;;;;;;;21.75;9.07;;;;;;;12.46;67.33;101362.88;6250066;22;20011;-72
2022/10/10 05:45:12;;;;;;;16.08;8.73;;;;;;;12.45;67.73;101363.75;6240358;22;20043;-72
2022/10/10 05:47:38;;;;;;;16.00;8.93;;;;;;;12.46;68.13;101370.72;6243975;22;20007;-73
2022/10/10 05:50:04;;;;;;;16.15;9.13;;;;;;;12.43;68.41;101370.72;6243122;22;20218;-72
2022/10/10 05:52:30;;;;;;;15.65;9.52;;;;;;;12.39;68.69;101375.00;6220442;22;20043;-73
2022/10/10 05:54:55;;;;;;;18.23;9.65;;;;;;;12.46;68.62;101368.13;6244566;22;20788;-72
2022/10/10 05:57:21;;;;;;;17.70;9.30;;;;;;;12.55;68.09;101369.13;6238937;22;20007;-73
2022/10/10 05:59:46;;;;;;;21.05;9.90;;;;;;;12.45;68.33;101363.75;6244597;22;20435;-74
2022/10/10 06:02:12;;;;;;;18.40;10.30;;;;;;;12.49;68.24;101361.22;6246412;22;20028;-73
2022/10/10 06:04:37;;;;;;;17.63;9.90;;;;;;;12.42;68.77;101368.94;6249800;22;20011;-73
2022/10/10 06:07:03;;;;;;;19.40;9.77;;;;;;;12.63;68.23;101361.38;6247735;22;20348;-73
2022/10/10 06:09:28;;;;;;;21.70;10.07;;;;;;;12.63;68.21;101365.72;6240585;22;20414;-72
2022/10/10 06:11:53;;;;;;;13.93;9.20;;;;;;;12.65;68.31;101362.28;6248036;22;20389;-73
2022/10/10 06:14:19;;;;;;;18.60;9.85;;;;;;;12.70;67.86;101368.44;6239954;22;20877;-72
2022/10/10 06:16:44;;;;;;;17.05;9.60;;;;;;;12.75;67.89;101365.88;6249109;22;20372;-73
2022/10/10 06:19:10;;;;;;;17.08;9.75;;;;;;;12.72;68.62;101363.22;6249681;22;20004;-73
2022/10/10 06:21:35;;;;;;;21.10;9.68;;;;;;;12.82;68.45;101370.31;6239083;22;20348;-72
2022/10/10 06:24:01;;;;;;;30.35;9.15;;;;;;;12.93;68.10;101374.81;6246446;22;20014;-73
2022/10/10 06:26:27;;;;;;;18.20;9.80;;;;;;;12.92;68.03;101372.22;6243923;22;20356;-73
2022/10/10 06:28:53;;;;;;;20.23;9.00;;;;;;;13.10;67.85;101371.53;6247699;22;20008;-73
2022/10/10 06:31:18;;;;;;;16.92;9.38;;;;;;;13.12;67.54;101377.63;6248905;22;20040;-73
2022/10/10 06:33:45;;;;;;;16.80;9.05;;;;;;;13.11;67.77;101386.38;6241927;22;20030;-73
2022/10/10 06:36:13;;;;;;;16.98;9.23;;;;;;;13.16;67.59;101393.47;6251513;22;20343;-73
2022/10/10 06:38:40;;;;;;;14.95;8.95;;;;;;;13.40;67.21;101391.09;6240923;22;20442;-73
2022/10/10 06:41:06;;;;;;;17.05;8.55;;;;;;;13.46;66.56;101384.16;6250845;22;20008;-73
2022/10/10 06:43:33;;;;;;;14.68;8.75;;;;;;;13.53;66.37;101386.88;6244695;22;20003;-73
2022/10/10 06:45:59;;;;;;;20.10;8.85;;;;;;;13.58;65.91;101385.16;6243857;22;20087;-72
2022/10/10 06:48:24;;;;;;;15.40;8.70;;;;;;;13.61;66.00;101387.78;6230264;22;20446;-72
2022/10/10 06:50:57;;;;;;;18.63;9.25;;;;;;;13.76;65.83;101384.44;6243145;22;20077;-73
2022/10/10 06:53:23;;;;;;;15.73;8.93;;;;;;;13.84;65.41;101389.75;6247994;22;20031;-73
2022/10/10 06:55:48;;;;;;;18.17;9.50;;;;;;;14.13;64.57;101382.97;6239811;22;20443;-72
2022/10/10 06:58:14;;;;;;;19.90;9.77;;;;;;;14.16;64.02;101383.88;6236405;22;20004;-72
2022/10/10 07:00:39;;;;;;;16.75;9.55;;;;;;;14.34;63.77;101392.72;6246940;22;20017;-72
2022/10/10 07:03:05;;;;;;;21.15;10.90;;;;;;;14.25;63.91;101398.78;6241787;22;20489;-72
2022/10/10 07:05:30;;;;;;;21.85;11.35;;;;;;;14.36;63.62;101399.75;6243627;22;20014;-73
2022/10/10 07:07:55;;;;;;;21.00;12.43;;;;;;;14.16;64.16;101402.22;6237734;22;20011;-72
2022/10/10 07:10:21;;;;;;;20.88;12.75;;;;;;;14.04;65.00;101404.75;6246069;22;20324;-73
2022/10/10 07:12:46;;;;;;;22.60;13.32;;;;;;;14.19;64.65;101422.34;6245893;22;20004;-73
2022/10/10 07:15:12;;;;;;;25.92;13.13;;;;;;;14.26;64.61;101420.66;6242672;22;20413;-73
2022/10/10 07:17:37;;;;;;;25.73;13.52;;;;;;;14.31;64.57;101409.31;6242815;22;20424;-72
2022/10/10 07:20:03;;;;;;;22.67;12.88;;;;;;;14.30;64.56;101406.69;6238532;22;20427;-73
2022/10/10 07:22:29;;;;;;;21.08;12.38;;;;;;;14.55;64.31;101409.50;6246526;22;20008;-73
2022/10/10 07:24:54;;;;;;;23.38;12.13;;;;;;;14.62;64.00;101402.56;6248138;22;20007;-73
2022/10/10 07:27:19;;;;;;;18.95;11.48;;;;;;;14.75;63.89;101403.50;6237273;22;20343;-72
2022/10/10 07:29:45;;;;;;;17.95;10.63;;;;;;;15.02;63.15;101393.97;6244716;22;20485;-73
2022/10/10 07:32:10;;;;;;;22.25;10.70;;;;;;;15.05;62.94;101408.00;6244174;22;20043;-73
2022/10/10 07:34:36;;;;;;;18.23;10.50;;;;;;;15.12;62.79;101413.28;6246994;22;20075;-73
2022/10/10 07:37:01;;;;;;;17.67;10.10;;;;;;;15.05;62.63;101413.25;6244432;22;20339;-73
2022/10/10 07:39:27;;;;;;;15.82;9.35;;;;;;;15.34;62.72;101411.56;6240730;22;20038;-73
2022/10/10 07:41:52;;;;;;;15.98;9.77;;;;;;;15.41;62.75;101405.47;6242683;22;20007;-72
2022/10/10 07:44:18;;;;;;;17.55;8.93;;;;;;;15.77;61.94;101416.06;6243238;22;20311;-72
2022/10/10 07:46:44;;;;;;;17.38;9.30;;;;;;;15.75;61.93;101409.03;6248768;22;20007;-73
2022/10/10 07:49:10;;;;;;;15.05;9.15;;;;;;;15.34;62.62;101415.09;6247853;22;20103;-73
2022/10/10 07:51:36;;;;;;;17.50;8.75;;;;;;;15.51;61.87;101409.84;6240022;22;20018;-73
2022/10/10 07:54:02;;;;;;;16.23;8.57;;;;;;;15.77;61.45;101421.31;6219252;22;20118;-73
2022/10/10 07:56:27;;;;;;;14.80;8.48;;;;;;;15.89;61.49;101423.06;6240816;22;20012;-73
2022/10/10 07:58:53;;;;;;;20.67;9.02;;;;;;;15.75;61.82;101425.69;6220810;22;20015;-74
2022/10/10 08:01:19;;;;;;;13.35;8.38;;;;;;;15.80;61.27;101418.69;6243773;22;20018;-72
2022/10/10 08:03:44;;;;;;;15.40;8.63;;;;;;;16.00;61.73;101428.34;6239694;22;20022;-72
2022/10/10 08:06:13;;;;;;;16.23;9.00;;;;;;;15.71;62.43;101439.72;6220206;22;20012;-73
2022/10/10 08:08:40;;;;;;;14.93;8.70;;;;;;;16.02;61.88;101439.75;6242657;22;20440;-73
2022/10/10 08:11:08;;;;;;;14.70;9.25;;;;;;;15.77;62.17;101450.25;6221607;22;20276;-73
2022/10/10 08:13:36;;;;;;;16.30;8.68;;;;;;;15.74;62.94;101442.34;6243862;22;20031;-72
2022/10/10 08:16:02;;;;;;;15.20;9.15;;;;;;;15.88;62.97;101447.63;6247697;22;20682;-72
2022/10/10 08:18:27;;;;;;;14.40;8.25;;;;;;;15.97;62.57;101449.38;6245614;22;20319;-72
2022/10/10 08:21:01;;;;;;;16.55;8.70;;;;;;;15.90;62.77;101452.88;6242628;22;20018;-74
2022/10/10 08:23:26;;;;;;;21.95;9.05;;;;;;;16.02;62.70;101450.25;6247550;22;20462;-73
2022/10/10 08:25:52;;;;;;;17.73;8.70;;;;;;;16.21;62.57;101454.66;6236408;22;20004;-72
2022/10/10 08:28:18;;;;;;;17.38;9.00;;;;;;;16.40;62.00;101461.66;6246237;22;20014;-72
2022/10/10 08:30:43;;;;;;;18.60;8.88;;;;;;;16.43;61.81;101456.38;6247304;22;20007;-73
2022/10/10 08:33:09;;;;;;;20.65;9.50;;;;;;;16.54;61.73;101451.06;6244197;22;20091;-74
2022/10/10 08:35:38;;;;;;;15.18;8.98;;;;;;;16.53;61.71;101454.59;6246282;22;20026;-72
2022/10/10 08:38:04;;;;;;;14.23;8.93;;;;;;;16.41;62.20;101458.13;6202523;22;20012;-72
2022/10/10 08:40:30;;;;;;;20.90;9.07;;;;;;;16.62;61.88;101460.75;6241831;22;20008;-72
2022/10/10 08:43:00;;;;;;;17.27;8.57;;;;;;;16.58;61.89;101453.72;6227195;22;20119;-72
2022/10/10 08:45:27;;;;;;;17.17;8.77;;;;;;;16.58;62.22;101456.34;6241277;22;20019;-72
2022/10/10 08:47:59;;;;;;;18.85;9.05;;;;;;;16.53;62.51;101458.09;6242285;22;20011;-73
2022/10/10 08:50:39;;;;;;;19.33;8.85;;;;;;;16.44;63.25;101471.28;6240611;22;20130;-72
2022/10/10 08:53:19;;;;;;;17.52;8.85;;;;;;;16.77;62.65;101467.72;6248470;22;20007;-72
2022/10/10 08:55:45;;;;;;;18.00;8.32;;;;;;;16.73;62.70;101465.13;6236554;22;20008;-72
2022/10/10 08:58:20;;;;;;;16.33;9.15;;;;;;;16.90;62.34;101463.31;6242625;22;20000;-72
2022/10/10 09:00:49;;;;;;;20.02;8.50;;;;;;;17.04;62.17;101475.56;6218240;22;20315;-72
2022/10/10 09:03:47;;;;;;;22.95;8.75;;;;;;;17.23;61.79;101472.84;6241012;22;20027;-73
2022/10/10 09:06:34;;;;;;;13.43;8.15;;;;;;;16.93;61.92;101477.34;6241777;22;20788;-73
2022/10/10 09:09:30;;;;;;;14.30;8.10;;;;;;;17.30;61.13;101478.09;6241073;22;20057;-73
2022/10/10 09:12:34;;;;;;;15.00;7.97;;;;;;;17.39;61.31;101477.16;6240080;22;20064;-72
2022/10/10 09:15:17;;;;;;;15.75;7.68;;;;;;;17.56;60.34;101475.34;6223076;22;20016;-73
2022/10/10 09:17:59;;;;;;;13.45;7.93;;;;;;;17.77;60.26;101480.50;6243703;22;20416;-72
2022/10/10 09:21:00;;;;;;;16.35;7.72;;;;;;;17.95;59.99;101487.41;6240760;22;20024;-73
2022/10/10 09:23:49;;;;;;;16.90;7.82;;;;;;;18.17;58.74;101488.13;6227683;22;20249;-72
2022/10/10 09:26:22;;;;;;;14.77;7.68;;;;;;;18.38;58.91;101487.06;6211253;22;20106;-71
2022/10/10 09:28:55;;;;;;;15.10;7.90;;;;;;;18.40;58.41;101486.16;6246434;22;20067;-72
2022/10/10 09:31:41;;;;;;;14.55;7.20;;;;;;;18.45;58.53;101488.75;6245029;22;20083;-73
2022/10/10 09:34:34;;;;;;;17.48;7.63;;;;;;;18.48;58.41;101494.03;6247713;22;20737;-74
2022/10/10 09:37:01;;;;;;;16.90;7.78;;;;;;;18.44;58.78;101509.00;6247846;22;20491;-72
2022/10/10 09:39:33;;;;;;;15.90;7.63;;;;;;;18.55;58.78;101501.88;6241753;22;20016;-72
2022/10/10 09:42:01;;;;;;;13.20;6.75;;;;;;;18.74;58.43;101507.88;6247260;22;20389;-72
2022/10/10 09:44:28;;;;;;;13.30;6.88;;;;;;;18.62;58.35;101507.97;6241193;22;20008;-72
2022/10/10 09:46:54;;;;;;;11.55;6.78;;;;;;;18.86;57.96;101509.50;6246653;22;20023;-72
2022/10/10 09:49:20;;;;;;;14.80;7.20;;;;;;;18.95;57.65;101506.78;6246180;22;20004;-73
2022/10/10 09:51:47;;;;;;;13.95;7.22;;;;;;;18.81;57.96;101519.25;6236140;22;20054;-72
2022/10/10 09:54:17;;;;;;;14.30;7.30;;;;;;;18.60;59.21;101523.00;6248435;22;20014;-72
2022/10/10 09:56:56;;;;;;;12.68;6.97;;;;;;;18.85;58.82;101527.13;6239486;22;20495;-72
2022/10/10 09:59:40;;;;;;;15.27;7.28;;;;;;;18.56;59.35;101530.06;6248426;22;20087;-71
2022/10/10 10:02:17;;;;;;;13.88;6.95;;;;;;;18.80;59.37;101533.34;6240226;22;20023;-73
2022/10/10 10:04:43;;;;;;;16.90;6.80;;;;;;;18.75;59.77;101536.03;6246528;22;20118;-73
2022/10/10 10:07:19;;;;;;;11.43;6.45;;;;;;;19.44;58.43;101534.38;6242629;22;20087;-72
2022/10/10 10:09:53;;;;;;;12.90;6.32;;;;;;;19.62;57.64;101543.00;6238812;22;20012;-73
2022/10/10 10:12:29;;;;;;;18.13;6.70;;;;;;;19.56;57.62;101541.31;6246006;22;20500;-73
2022/10/10 10:15:05;;;;;;;14.00;6.85;;;;;;;19.57;57.90;101547.50;6241033;22;20011;-73
2022/10/10 10:17:31;;;;;;;12.55;6.22;;;;;;;19.20;59.02;101554.97;6249194;22;19999;-73
2022/10/10 10:19:57;;;;;;;15.07;6.60;;;;;;;19.16;59.04;101561.16;6212337;22;20015;-72
2022/10/10 10:22:37;;;;;;;11.82;6.70;;;;;;;19.15;59.03;101557.63;6246084;22;20189;-72
2022/10/10 10:25:38;;;;;;;15.95;6.80;;;;;;;18.89;59.96;101578.19;6219349;22;20233;-72
2022/10/10 10:28:09;;;;;;;12.35;6.38;;;;;;;18.99;59.72;101572.78;6152353;23;20313;-73
2022/10/10 10:30:36;;;;;;;16.92;6.32;;;;;;;19.38;58.56;101578.53;6233292;22;20344;-73
2022/10/10 10:33:17;;;;;;;13.15;6.13;;;;;;;19.16;59.59;101580.53;6244707;22;20031;-72
2022/10/10 10:36:08;;;;;;;12.45;6.40;;;;;;;18.76;60.68;101593.25;6241028;22;20186;-72
2022/10/10 10:39:09;;;;;;;14.65;6.72;;;;;;;18.97;60.69;101598.34;6241729;22;20440;-72
2022/10/10 10:41:44;;;;;;;12.32;6.30;;;;;;;19.16;59.41;101588.47;6237865;22;20381;-73
2022/10/10 10:44:15;;;;;;;11.10;6.10;;;;;;;19.23;60.04;101591.91;6244097;22;20336;-73
2022/10/10 10:47:13;;;;;;;12.85;6.75;;;;;;;19.44;59.65;101595.22;6247709;22;20012;-72
2022/10/10 10:50:22;;;;;;;13.38;6.40;;;;;;;19.29;60.05;101589.19;6240774;22;20035;-72
2022/10/10 10:52:54;;;;;;;13.30;6.32;;;;;;;19.33;60.12;101583.84;6247427;22;20077;-73
2022/10/10 10:55:26;;;;;;;12.13;5.95;;;;;;;19.42;59.73;101588.19;6240383;22;20057;-72
2022/10/10 10:58:12;;;;;;;20.20;6.20;;;;;;;19.36;60.69;101590.88;6236897;22;20019;-73
2022/10/10 11:00:48;;;;;;;12.70;5.53;;;;;;;19.68;59.60;101595.84;6241123;22;20018;-72
2022/10/10 11:03:41;;;;;;;13.48;5.60;;;;;;;19.69;59.80;101589.66;6235203;22;20027;-71
2022/10/10 11:06:28;;;;;;;13.63;5.97;;;;;;;19.27;61.59;101593.66;6243047;22;20568;-72
2022/10/10 11:09:21;;;;;;;14.02;5.65;;;;;;;18.78;63.07;101603.81;6243207;22;20446;-72
2022/10/10 11:12:39;;;;;;;13.48;5.45;;;;;;;19.25;61.95;101596.31;6242151;22;20011;-73
2022/10/10 11:15:20;;;;;;;14.93;5.45;;;;;;;18.90;63.07;101601.97;6228298;22;20269;-75
2022/10/10 11:18:00;;;;;;;11.98;4.60;;;;;;;18.90;63.45;101609.88;6240925;22;20376;-72
2022/10/10 11:20:41;;;;;;;12.82;4.50;;;;;;;19.00;63.04;101600.09;6213344;22;20016;-72
2022/10/10 11:23:13;;;;;;;8.73;4.28;;;;;;;18.75;64.77;101607.34;6242520;22;20402;-73
2022/10/10 11:26:03;;;;;;;8.82;3.50;;;;;;;18.91;64.65;101605.44;6238563;22;20502;-73
2022/10/10 11:28:39;;;;;;;7.97;2.80;;;;;;;18.64;66.17;101609.22;6246699;22;20260;-73
2022/10/10 11:31:27;;;;;;;10.65;2.67;;;;;;;18.56;66.25;101618.97;6245080;22;20011;-73